»·PEaware :: N461D KVNY-KSBD

N461D :: KVNY-KSBD

FLIGHT INFORMATION

Flight Status: Arrived
Operator: Privately registered:
United States
More flights under this callsign
Pilot: Daniel R. (17770)
Aircraft: CESSNA 172 SKYHAWK
(C172)
More flights by this aircraft type
Origin: KVNY Van Nuys
United States
Destination: KSBD San Bernardino Intl
United States
More flights between these airports :: More routes between these airports
Route: +ADAMM2 ADAMM V186 PDZ
File this flight plan on PilotEdge
Remarks: Sample flight plan
Altitude:
(Current/Filed)
5,000ft
Speed:
(Current/Filed)
115kts
Departed: 04-Jan-18 08:29 PM
Arrived: 04-Jan-18 09:11 PM
Distance/Time
Traveled:
62nm/0:42
Distance/Time
To Go:
Arrived

Flight Plot

Page will automatically refresh every two minutes.


Map Options




Map Legend


Flown Route
Filed Route
Departure Airport
Arrival Airport
Navaid (VOR, NDB)
Fix

Horizontal Profiles

Position Reports

Time Latitude Longitude Heading Altitude Ground
Speed
04-Jan-18 19:59 34.203487 -118.491395 179 804ft 0kts
04-Jan-18 20:00 34.203487 -118.491395 179 804ft 0kts
04-Jan-18 20:01 34.203487 -118.491395 179 804ft 0kts
04-Jan-18 20:02 34.203487 -118.491395 179 804ft 0kts
04-Jan-18 20:03 34.203487 -118.491395 179 804ft 0kts
04-Jan-18 20:04 34.203487 -118.491395 179 804ft 0kts
04-Jan-18 20:05 34.203487 -118.491395 179 804ft 0kts
04-Jan-18 20:06 34.203487 -118.491395 179 804ft 0kts
04-Jan-18 20:07 34.203487 -118.491395 179 804ft 0kts
04-Jan-18 20:08 34.203487 -118.491395 179 804ft 0kts
04-Jan-18 20:09 34.203487 -118.491395 179 804ft 0kts
04-Jan-18 20:10 34.203487 -118.491395 179 804ft 0kts
04-Jan-18 20:11 34.203487 -118.491395 179 804ft 0kts
04-Jan-18 20:12 34.203487 -118.491395 179 804ft 0kts
04-Jan-18 20:13 34.203487 -118.491395 179 804ft 0kts
04-Jan-18 20:14 34.203487 -118.491395 179 804ft 0kts
04-Jan-18 20:15 34.203487 -118.491395 179 804ft 0kts
04-Jan-18 20:16 34.203487 -118.491395 179 804ft 0kts
04-Jan-18 20:17 34.203487 -118.491395 179 804ft 0kts
04-Jan-18 20:18 34.203487 -118.491395 179 804ft 0kts
04-Jan-18 20:19 34.203487 -118.491395 179 804ft 0kts
04-Jan-18 20:20 34.203487 -118.491395 179 804ft 0kts
04-Jan-18 20:21 34.203487 -118.491395 179 804ft 0kts
04-Jan-18 20:22 34.203487 -118.491395 179 804ft 0kts
04-Jan-18 20:23 34.203487 -118.491395 179 804ft 0kts
04-Jan-18 20:24 34.203487 -118.491395 179 804ft 0kts
04-Jan-18 20:25 34.203487 -118.491395 179 804ft 0kts
04-Jan-18 20:26 34.205888 -118.491149 359 804ft 20kts
04-Jan-18 20:27 34.212223 -118.491749 356 804ft 25kts
04-Jan-18 20:28 34.219000 -118.492302 159 804ft 0kts
04-Jan-18 20:29 34.219000 -118.492302 159 804ft 0kts
04-Jan-18 20:30 34.219000 -118.492302 159 804ft 0kts
04-Jan-18 20:31 34.219000 -118.492302 159 804ft 0kts
04-Jan-18 20:32 34.218939 -118.492272 156 804ft 0kts
04-Jan-18 20:33 34.218931 -118.492268 155 804ft 0kts
04-Jan-18 20:34 34.218769 -118.492087 91 804ft 6kts
04-Jan-18 20:35 34.203902 -118.490334 176 993ft 105kts
04-Jan-18 20:36 34.172888 -118.486156 140 1495ft 115kts
04-Jan-18 20:37 34.153545 -118.456625 122 2081ft 108kts
04-Jan-18 20:38 34.136337 -118.428103 122 2783ft 103kts
04-Jan-18 20:39 34.128265 -118.396931 92 3492ft 97kts
04-Jan-18 20:40 34.126855 -118.364683 92 4163ft 99kts
04-Jan-18 20:41 34.127329 -118.330093 92 4663ft 105kts
04-Jan-18 20:42 34.127958 -118.294123 92 4990ft 116kts
04-Jan-18 20:43 34.128634 -118.255718 92 4986ft 113kts
04-Jan-18 20:44 34.129129 -118.217705 96 4985ft 114kts
04-Jan-18 20:45 34.124301 -118.179639 104 4986ft 115kts
04-Jan-18 20:46 34.115289 -118.142655 101 4986ft 117kts
04-Jan-18 20:47 34.117273 -118.103203 76 4985ft 121kts
04-Jan-18 20:48 34.107177 -118.065762 117 4988ft 119kts
04-Jan-18 20:49 34.093194 -118.029287 117 4992ft 120kts
04-Jan-18 20:50 34.079236 -117.992312 115 4997ft 121kts
04-Jan-18 20:51 34.065866 -117.956492 114 4998ft 110kts
04-Jan-18 20:52 34.054001 -117.923568 113 5001ft 107kts
04-Jan-18 20:53 34.038514 -117.892981 117 5001ft 109kts
04-Jan-18 20:54 34.024188 -117.860704 114 5001ft 109kts
04-Jan-18 20:55 34.013412 -117.826453 102 5000ft 109kts
04-Jan-18 20:56 34.006287 -117.790772 107 4864ft 106kts
04-Jan-18 20:57 33.995907 -117.757324 112 4760ft 113kts
04-Jan-18 20:58 33.983503 -117.721024 113 4567ft 119kts
04-Jan-18 20:59 33.970740 -117.683981 113 4371ft 119kts
04-Jan-18 21:00 33.958032 -117.647148 112 4177ft 119kts
04-Jan-18 21:01 33.944969 -117.610597 112 3986ft 119kts
04-Jan-18 21:02 33.932946 -117.575491 111 3993ft 110kts
04-Jan-18 21:03 33.924828 -117.540664 96 3994ft 108kts
04-Jan-18 21:04 33.921363 -117.504460 89 3994ft 108kts
04-Jan-18 21:05 33.931140 -117.474945 9 3994ft 98kts
04-Jan-18 21:06 33.954394 -117.487230 316 3994ft 93kts
04-Jan-18 21:07 33.976878 -117.500682 12 3990ft 101kts
04-Jan-18 21:08 34.003514 -117.488456 19 3993ft 103kts
04-Jan-18 21:09 34.028379 -117.471337 62 3989ft 108kts
04-Jan-18 21:10 34.035934 -117.435518 72 3857ft 119kts
04-Jan-18 21:11 34.046907 -117.396274 70 3368ft 124kts
04-Jan-18 21:12 34.057661 -117.360651 69 3180ft 116kts
04-Jan-18 21:13 34.067514 -117.327996 71 2552ft 82kts
04-Jan-18 21:14 34.075143 -117.302687 72 2110ft 86kts
04-Jan-18 21:15 34.082886 -117.276341 70 1648ft 73kts
04-Jan-18 21:16 34.089594 -117.254358 71 1275ft 68kts
04-Jan-18 21:17 34.094152 -117.242041 357 1161ft 0kts
04-Jan-18 21:18 34.094166 -117.242041 357 1161ft 3kts
04-Jan-18 21:19 34.095753 -117.242843 119 1161ft 0kts

Navigation Log

Ident Type
1. KVNY Airport
2. ADAMM Fix
3. BAYJY Fix
4. TIFNI Fix
5. PDZ Navaid
6. KSBD Airport